Time;durP1;ratioP1;P1;durP2;ratioP2;P2;SDS_P1;SDS_P2;PMS_P1;PMS_P2;Temp;Humidity;BMP_temperature;BMP_pressure;BME280_temperature;BME280_humidity;BME280_pressure;Samples;Min_cycle;Max_cycle;Signal;HPM_P1;HPM_P2
2022/04/27 00:02:57;;;;;;;2.27;1.10;;;;;;;;;;20887270;28;20573;-83
2022/04/27 00:12:58;;;;;;;2.40;1.00;;;;;;;;;;20813447;28;20769;-84
2022/04/27 00:23:00;;;;;;;1.77;1.10;;;;;;;;;;20936127;28;20224;-83
2022/04/27 00:33:02;;;;;;;2.00;1.27;;;;;;;;;;20940155;28;20266;-82
2022/04/27 00:43:04;;;;;;;2.13;1.33;;;;;;;;;;20956035;28;20271;-82
2022/04/27 00:53:05;;;;;;;1.53;1.00;;;;;;;;;;20940532;28;20229;-82
2022/04/27 01:03:07;;;;;;;1.87;1.00;;;;;;;;;;20954250;28;20216;-81
2022/04/27 01:13:09;;;;;;;1.53;1.10;;;10.40;99.90;;;;;;20970037;28;20283;-83
2022/04/27 01:23:15;;;;;;;1.47;1.07;;;;;;;;;;20969097;28;20213;-82
2022/04/27 01:33:17;;;;;;;1.60;1.20;;;;;;;;;;20968679;28;20271;-83
2022/04/27 01:43:19;;;;;;;1.80;1.07;;;;;;;;;;20951658;28;20702;-83
2022/04/27 02:03:41;;;;;;;2.00;1.27;;;;;;;;;;20959176;28;20210;-83
2022/04/27 02:13:48;;;;;;;1.47;1.00;;;;;;;;;;20965070;28;20209;-83
2022/04/27 02:23:50;;;;;;;1.90;1.13;;;;;;;;;;20948880;28;20792;-84
2022/04/27 02:33:51;;;;;;;1.77;1.20;;;;;;;;;;20947726;28;20756;-83
2022/04/27 02:43:55;;;;;;;2.47;1.67;;;;;;;;;;20963031;28;20225;-83
2022/04/27 02:53:56;;;;;;;2.20;1.60;;;;;;;;;;20946007;28;20229;-83
2022/04/27 03:03:58;;;;;;;2.53;1.63;;;;;;;;;;20962122;28;20209;-81
2022/04/27 03:14:02;;;;;;;2.50;1.50;;;;;;;;;;20960910;28;20217;-81
2022/04/27 03:24:04;;;;;;;3.23;1.83;;;;;;;;;;20925811;28;20224;-82
2022/04/27 03:34:06;;;;;;;2.77;1.50;;;;;;;;;;20875310;28;20222;-81
2022/04/27 03:44:10;;;;;;;3.00;2.00;;;;;;;;;;20891756;28;20210;-81
2022/04/27 03:54:12;;;;;;;3.53;2.00;;;;;;;;;;20874721;28;20229;-81
2022/04/27 04:04:15;;;;;;;3.90;1.87;;;;;;;;;;20808914;28;20227;-80
2022/04/27 04:14:17;;;;;;;3.03;1.80;;;;;;;;;;20837863;28;20217;-81
2022/04/27 04:24:30;;;;;;;2.30;1.63;;;;;;;;;;20889042;28;20229;-81
2022/04/27 04:34:33;;;;;;;3.67;1.63;;;;;;;;;;20869661;28;20233;-81
2022/04/27 04:44:36;;;;;;;3.47;2.17;;;;;;;;;;20889535;28;20268;-83
2022/04/27 04:54:47;;;;;;;3.40;2.17;;;;;;;;;;20874757;28;20237;-83
2022/04/27 05:05:03;;;;;;;3.57;2.20;;;;;;;;;;20876822;28;20260;-82
2022/04/27 05:15:20;;;;;;;6.00;4.53;;;;;;;;;;20905211;28;20287;-84
2022/04/27 05:25:47;;;;;;;5.90;2.90;;;;;;;;;;20887437;28;20611;-83
2022/04/27 05:35:55;;;;;;;4.40;2.70;;;;;;;;;;20887197;28;20233;-81
2022/04/27 05:46:30;;;;;;;4.27;3.13;;;;;;;;;;20854577;28;20272;-81
2022/04/27 05:56:49;;;;;;;4.03;2.77;;;;;;;;;;20917788;28;20240;-81
2022/04/27 06:07:09;;;;;;;3.40;2.40;;;;;;;;;;20884174;28;20237;-84
2022/04/27 06:17:12;;;;;;;5.17;3.13;;;;;;;;;;20867450;28;20233;-84
2022/04/27 06:27:14;;;;;;;5.00;3.27;;;;;;;;;;20882563;28;20244;-84
2022/04/27 06:37:16;;;;;;;4.77;3.20;;;;;;;;;;20915486;28;20287;-86
2022/04/27 06:47:19;;;;;;;4.47;2.97;;;;;;;;;;20879815;28;20773;-83
2022/04/27 06:57:40;;;;;;;4.07;3.07;;;;;;;;;;20897697;28;20304;-85
2022/04/27 07:07:45;;;;;;;4.43;2.93;;;;;;;;;;20879453;28;20264;-84
2022/04/27 07:17:47;;;;;;;4.57;3.50;;;;;;;;;;20862180;28;20233;-83
2022/04/27 07:27:48;;;;;;;5.53;4.37;;;;;;;;;;20879578;28;20206;-83
2022/04/27 07:37:50;;;;;;;6.10;4.13;;;;;;;;;;20876952;28;20234;-83
2022/04/27 07:47:52;;;;;;;5.70;4.07;;;;;;;;;;20876794;28;20217;-83
2022/04/27 07:57:54;;;;;;;5.90;4.40;;;;;;;;;;20875093;28;20237;-81
2022/04/27 08:07:56;;;;;;;5.90;4.30;;;;;;;;;;20874175;28;20253;-82
2022/04/27 08:17:59;;;;;;;4.87;3.20;;;;;;;;;;20889988;28;20296;-80
2022/04/27 08:28:06;;;;;;;6.93;4.27;;;;;;;;;;20857132;28;20276;-82
2022/04/27 08:38:09;;;;;;;5.67;4.13;;;;;;;;;;20889748;28;20300;-82
2022/04/27 08:48:12;;;;;;;6.13;3.40;;;;;;;;;;20889160;28;20217;-82
2022/04/27 08:58:15;;;;;;;6.17;4.10;;;;;;;;;;20872142;28;20226;-82
2022/04/27 09:08:16;;;;;;;6.80;4.67;;;;;;;;;;20891636;28;20237;-82
2022/04/27 09:28:38;;;;;;;4.47;3.33;;;;;;;;;;20902840;28;20222;-81
2022/04/27 09:38:40;;;;;;;8.07;4.00;;;;;;;;;;20902304;28;20287;-82
2022/04/27 09:48:42;;;;;;;4.77;4.00;;;;;;;;;;20868108;28;20683;-81
2022/04/27 09:58:44;;;;;;;6.27;4.53;;;;;;;;;;20900067;28;20731;-82
2022/04/27 10:08:49;;;;;;;5.73;4.40;;;;;;;;;;20900341;28;20214;-80
2022/04/27 10:18:51;;;;;;;5.57;4.60;;;17.10;99.90;;;;;;20881584;28;20226;-81
2022/04/27 10:29:00;;;;;;;5.73;4.77;;;17.40;99.90;;;;;;20915489;28;20218;-80
2022/04/27 10:39:17;;;;;;;5.93;4.43;;;;;;;;;;20880363;28;20260;-82
2022/04/27 10:49:24;;;;;;;6.10;4.40;;;17.40;99.90;;;;;;20879862;28;20206;-81
2022/04/27 10:59:47;;;;;;;5.60;3.97;;;;;;;;;;20895408;28;20222;-81
2022/04/27 11:09:49;;;;;;;6.90;4.53;;;;;;;;;;20898728;28;20221;-82
2022/04/27 11:19:50;;;;;;;4.63;4.00;;;;;;;;;;20893735;28;20292;-82
2022/04/27 11:29:53;;;;;;;5.40;3.93;;;;;;;;;;20909531;28;20671;-81
2022/04/27 11:39:54;;;;;;;5.60;3.30;;;;;;;;;;20907407;28;20210;-81
2022/04/27 11:49:57;;;;;;;3.47;2.60;;;;;;;;;;20876443;28;20256;-81
2022/04/27 11:59:59;;;;;;;5.00;3.83;;;;;;;;;;20892412;28;20552;-81
2022/04/27 12:10:02;;;;;;;7.30;3.90;;;;;;;;;;20858963;28;20226;-81
2022/04/27 12:20:05;;;;;;;3.90;2.93;;;;;;;;;;20908263;28;20226;-82
2022/04/27 12:30:07;;;;;;;3.87;3.00;;;19.10;99.90;;;;;;20875065;28;20222;-79
2022/04/27 12:40:13;;;;;;;3.37;2.50;;;;;;;;;;20874181;28;20553;-82
2022/04/27 12:50:14;;;;;;;4.10;2.70;;;;;;;;;;20875663;28;20238;-82
2022/04/27 13:00:17;;;;;;;3.53;2.27;;;;;;;;;;20888245;28;20272;-81
2022/04/27 13:20:40;;;;;;;2.07;1.40;;;;;;;;;;20840846;28;20257;-82
2022/04/27 13:30:42;;;;;;;2.50;1.90;;;;;;;;;;20853237;28;20237;-85
2022/04/27 13:40:46;;;;;;;3.37;1.93;;;;;;;;;;20912665;28;20222;-86
2022/04/27 13:50:48;;;;;;;2.23;1.63;;;;;;;;;;20883793;28;20675;-85
2022/04/27 14:00:53;;;;;;;2.27;1.50;;;;;;;;;;20884332;28;20579;-86
2022/04/27 14:10:56;;;;;;;1.93;1.40;;;;;;;;;;20864741;28;20225;-84
2022/04/27 14:20:59;;;;;;;1.93;1.40;;;18.00;99.90;;;;;;20882874;28;20284;-84
2022/04/27 14:31:01;;;;;;;2.50;1.37;;;;;;;;;;20849068;28;20268;-85
2022/04/27 14:41:04;;;;;;;2.30;1.10;;;;;;;;;;20897743;28;20253;-84
2022/04/27 14:51:06;;;;;;;1.70;1.00;;;;;;;;;;20880848;28;20752;-85
2022/04/27 15:01:08;;;;;;;1.90;0.90;;;;;;;;;;20880920;28;20559;-82
2022/04/27 15:11:09;;;;;;;2.83;1.10;;;;;;;;;;20879592;28;20761;-82
2022/04/27 15:31:32;;;;;;;2.87;1.40;;;;;;;;;;20931795;28;20226;-85
2022/04/27 15:41:36;;;;;;;2.33;1.00;;;;;;;;;;20949427;28;20225;-85
2022/04/27 15:51:38;;;;;;;1.17;0.90;;;;;;;;;;20973636;28;20230;-84
2022/04/27 16:01:39;;;;;;;0.97;0.67;;;19.00;99.90;;;;;;20937325;28;20305;-85
2022/04/27 16:11:42;;;;;;;1.10;0.80;;;;;;;;;;20876636;28;20284;-83
2022/04/27 16:32:05;;;;;;;1.40;1.00;;;;;;;;;;20905865;28;20214;-84
2022/04/27 16:42:06;;;;;;;1.40;0.80;;;;;;;;;;20891371;28;20218;-84
2022/04/27 16:52:10;;;;;;;1.53;0.90;;;;;;;;;;20890284;28;20687;-85
2022/04/27 17:02:12;;;;;;;1.20;0.80;;;;;;;;;;20888304;28;20268;-82
2022/04/27 17:12:14;;;;;;;1.20;0.80;;;;;;;;;;20903444;28;20639;-82
2022/04/27 17:22:15;;;;;;;1.20;0.80;;;;;;;;;;20902696;28;20271;-82
2022/04/27 17:32:17;;;;;;;1.20;0.70;;;;;;;;;;20869486;28;20214;-82
2022/04/27 17:42:34;;;;;;;0.97;0.60;;;;;;;;;;20883797;28;20218;-83
2022/04/27 17:52:37;;;;;;;1.10;0.63;;;;;;;;;;20915262;28;20222;-80
2022/04/27 18:02:40;;;;;;;2.67;1.10;;;;;;;;;;20898684;28;20348;-81
2022/04/27 18:12:56;;;;;;;1.27;0.90;;;;;;;;;;20866304;28;20850;-83
2022/04/27 18:23:03;;;;;;;1.60;0.90;;;;;;;;;;20865677;28;20226;-82
2022/04/27 18:33:05;;;;;;;1.40;0.90;;;;;;;;;;20901809;28;20296;-83
2022/04/27 18:49:57;;;;;;;1.10;0.80;;;;;;;;;;20876747;28;20214;-83
2022/04/27 18:53:38;;;;;;;1.00;0.70;;;;;;;;;;20899262;28;20295;-84
2022/04/27 19:03:55;;;;;;;1.30;0.90;;;;;;;;;;20877187;28;20233;-83
2022/04/27 19:14:04;;;;;;;1.67;1.07;;;;;;;;;;20855003;28;20221;-82
2022/04/27 19:24:09;;;;;;;1.50;1.13;;;;;;;;;;20913134;28;20290;-84
2022/04/27 19:34:20;;;;;;;1.50;1.20;;;;;;;;;;20625794;22;20237;-68
2022/04/27 19:44:22;;;;;;;2.53;1.07;;;;;;;;;;20383939;29;20222;-68
2022/04/27 19:54:25;;;;;;;2.40;0.80;;;;;;;;;;20417483;29;20249;-68
2022/04/27 20:04:29;;;;;;;2.73;1.30;;;;;;;;;;20403412;28;20252;-68
2022/04/27 20:14:32;;;;;;;3.80;1.37;;;;;;;;;;20417095;29;20239;-68
2022/04/27 20:24:34;;;;;;;1.70;1.10;;;;;;;;;;20401104;29;20214;-68
2022/04/27 20:34:36;;;;;;;2.10;1.20;;;;;;;;;;20397642;29;20283;-68
2022/04/27 20:44:39;;;;;;;1.20;0.90;;;15.80;99.90;;;;;;20400778;29;20356;-68
2022/04/27 20:54:43;;;;;;;3.30;1.20;;;15.80;99.90;;;;;;20384138;28;20226;-68
2022/04/27 21:04:46;;;;;;;1.43;1.00;;;;;;;;;;20383154;28;20861;-67
2022/04/27 21:14:47;;;;;;;2.43;1.30;;;;;;;;;;20389890;29;20261;-67
2022/04/27 21:24:50;;;;;;;1.67;1.30;;;;;;;;;;20411950;29;20210;-67
2022/04/27 21:34:52;;;;;;;3.67;1.60;;;;;;;;;;20411009;29;20249;-67
2022/04/27 21:44:54;;;;;;;2.20;1.63;;;;;;;;;;20462259;28;20197;-67
2022/04/27 21:54:55;;;;;;;2.57;1.60;;;;;;;;;;20412029;29;20226;-67
2022/04/27 22:04:57;;;;;;;2.20;1.60;;;;;;;;;;20438232;29;20658;-67
2022/04/27 22:14:59;;;;;;;2.17;1.60;;;;;;;;;;20431300;29;20238;-67
2022/04/27 22:25:02;;;;;;;1.60;1.17;;;;;;;;;;20399389;29;20198;-67
2022/04/27 22:35:03;;;;;;;1.77;1.30;;;14.30;99.90;;;;;;20414967;29;20563;-67
2022/04/27 22:45:06;;;;;;;1.80;1.40;;;;;;;;;;20398669;29;20190;-67
2022/04/27 22:55:08;;;;;;;2.47;1.13;;;14.10;99.90;;;;;;20429524;29;20238;-67
2022/04/27 23:05:10;;;;;;;1.90;1.40;;;;;;;;;;20397826;29;20630;-67
2022/04/27 23:15:12;;;;;;;2.00;1.43;;;;;;;;;;20396879;29;20272;-67
2022/04/27 23:25:14;;;;;;;1.90;1.07;;;;;;;;;;20428045;29;20210;-67
2022/04/27 23:35:16;;;;;;;2.10;1.43;;;;;;;;;;20380663;29;20218;-67
2022/04/27 23:45:18;;;;;;;2.63;1.67;;;;;;;;;;20410996;29;20281;-67
2022/04/27 23:55:20;;;;;;;2.73;1.70;;;;;;;;;;20394539;29;20226;-67
